Time;durP1;ratioP1;P1;durP2;ratioP2;P2;SDS_P1;SDS_P2;PMS_P1;PMS_P2;Temp;Humidity;BMP_temperature;BMP_pressure;BME280_temperature;BME280_humidity;BME280_pressure;Samples;Min_cycle;Max_cycle;Signal;HPM_P1;HPM_P2
2022/10/31 00:01:14;;;;;;;5.03;2.17;;;;;;;8.61;100.00;99415.20;1693741;84;21352;-60
2022/10/31 00:03:41;;;;;;;5.43;1.50;;;;;;;8.59;100.00;99411.48;1694783;83;21375;-59
2022/10/31 00:06:08;;;;;;;4.87;1.67;;;;;;;8.59;100.00;99411.48;1693688;83;21783;-72
2022/10/31 00:08:37;;;;;;;5.53;1.80;;;;;;;8.56;100.00;99408.47;1693806;83;21279;-60
2022/10/31 00:11:09;;;;;;;7.70;2.00;;;;;;;8.55;100.00;99402.47;1693137;83;21328;-59
2022/10/31 00:13:37;;;;;;;6.30;2.03;;;;;;;8.57;100.00;99399.20;1694502;84;21440;-59
2022/10/31 00:16:05;;;;;;;5.30;1.53;;;;;;;8.57;100.00;99397.10;1693968;83;21295;-71
2022/10/31 00:18:32;;;;;;;4.60;1.47;;;;;;;8.60;100.00;99401.89;1691036;84;21258;-58
2022/10/31 00:21:01;;;;;;;4.73;1.80;;;;;;;8.61;100.00;99400.92;1691507;84;21610;-58
2022/10/31 00:23:29;;;;;;;5.40;1.40;;;;;;;8.62;100.00;99394.22;1692988;84;21908;-58
2022/10/31 00:26:02;;;;;;;4.93;1.63;;;;;;;8.63;100.00;99387.23;1694308;84;21264;-58
2022/10/31 00:28:31;;;;;;;6.07;1.87;;;;;;;8.66;100.00;99392.05;1692867;83;21687;-59
2022/10/31 00:31:03;;;;;;;5.17;2.03;;;;;;;8.73;100.00;99390.29;1694286;84;21280;-58
2022/10/31 00:33:33;;;;;;;;;;;;;;;8.76;100.00;99378.22;1696467;83;21315;-58
2022/10/31 00:36:00;;;;;;;8.10;1.77;;;;;;;8.76;100.00;99385.52;1694376;83;20161;-58
2022/10/31 00:38:27;;;;;;;5.03;1.60;;;;;;;8.76;100.00;99379.52;1693897;83;21300;-58
2022/10/31 00:40:55;;;;;;;5.90;2.17;;;;;;;8.79;100.00;99373.94;1694948;84;21276;-57
2022/10/31 00:43:23;;;;;;;5.13;1.70;;;;;;;8.82;100.00;99363.64;1693952;83;21322;-58
2022/10/31 00:45:51;;;;;;;7.07;1.60;;;;;;;8.80;100.00;99370.84;1694049;83;21382;-61
2022/10/31 00:48:18;;;;;;;5.57;2.30;;;;;;;8.84;100.00;99365.06;1692617;84;21346;-73
2022/10/31 00:50:46;;;;;;;6.13;1.90;;;;;;;8.86;100.00;99362.25;1694637;83;21488;-58
2022/10/31 00:53:13;;;;;;;4.93;1.70;;;;;;;8.88;100.00;99367.57;1693050;84;21386;-57
2022/10/31 00:55:41;;;;;;;5.17;1.50;;;;;;;8.93;100.00;99361.78;1694579;84;21278;-58
2022/10/31 00:58:07;;;;;;;4.50;1.80;;;;;;;8.95;100.00;99356.71;1693006;84;21693;-57
2022/10/31 01:00:35;;;;;;;3.80;1.80;;;;;;;8.97;100.00;99359.90;1694191;83;21375;-59
2022/10/31 01:03:03;;;;;;;4.27;1.70;;;;;;;8.97;100.00;99351.30;1693686;83;21442;-58
2022/10/31 01:05:30;;;;;;;4.50;1.50;;;;;;;9.01;100.00;99346.02;1695208;84;21461;-60
2022/10/31 01:07:57;;;;;;;3.03;1.30;;;;;;;9.01;100.00;99341.62;1692194;83;21339;-58
2022/10/31 01:10:27;;;;;;;6.43;2.00;;;;;;;9.03;100.00;99343.24;1690345;84;21359;-71
2022/10/31 01:12:55;;;;;;;5.13;1.77;;;;;;;9.04;100.00;99339.64;1692724;84;21421;-58
2022/10/31 01:15:23;;;;;;;4.40;1.50;;;;;;;9.05;100.00;99343.83;1695064;84;21887;-60
2022/10/31 01:17:51;;;;;;;4.00;1.40;;;;;;;9.05;100.00;99343.83;1694196;84;21311;-58
2022/10/31 01:20:18;;;;;;;4.77;1.20;;;;;;;9.05;100.00;99339.93;1693952;84;21222;-59
2022/10/31 01:22:45;;;;;;;7.50;1.70;;;;;;;9.05;100.00;99339.93;1694078;83;22051;-58
2022/10/31 01:25:13;;;;;;;3.03;1.30;;;;;;;9.06;100.00;99331.16;1694574;83;21801;-58
2022/10/31 01:27:42;;;;;;;5.97;1.57;;;;;;;9.06;100.00;99328.56;1695386;84;22200;-58
2022/10/31 01:30:10;;;;;;;5.83;1.70;;;;;;;9.04;100.00;99323.54;1694647;84;21415;-58
2022/10/31 01:32:38;;;;;;;5.23;1.60;;;;;;;9.00;100.00;99319.23;1692061;84;21698;-59
2022/10/31 01:35:05;;;;;;;4.73;1.87;;;;;;;9.00;100.00;99321.83;1692891;84;21717;-59
2022/10/31 01:37:33;;;;;;;4.67;1.50;;;;;;;9.00;100.00;99321.03;1689476;84;21335;-58
2022/10/31 01:40:00;;;;;;;5.80;1.40;;;;;;;8.99;100.00;99322.03;1693988;83;21418;-57
2022/10/31 01:42:28;;;;;;;5.20;1.73;;;;;;;8.99;100.00;99322.03;1692172;84;21423;-59
2022/10/31 01:45:00;;;;;;;4.43;1.37;;;;;;;9.02;100.00;99321.65;1693412;84;21559;-58
2022/10/31 01:47:41;;;;;;;2.73;1.30;;;;;;;9.02;100.00;99321.65;1691335;84;21942;-58
2022/10/31 01:50:26;;;;;;;4.65;1.62;;;;;;;9.03;100.00;99319.84;1689912;84;21329;-73
2022/10/31 01:52:53;;;;;;;4.40;1.40;;;;;;;9.08;100.00;99312.25;1691992;84;20986;-59
2022/10/31 01:55:34;;;;;;;4.93;1.60;;;;;;;9.10;100.00;99302.47;1693500;84;21298;-59
2022/10/31 01:58:10;;;;;;;6.33;1.60;;;;;;;9.13;100.00;99305.48;1692032;84;21445;-73
2022/10/31 02:00:39;;;;;;;6.70;1.87;;;;;;;9.03;100.00;99293.85;1693341;83;21092;-61
2022/10/31 02:03:06;;;;;;;5.23;1.53;;;;;;;9.03;100.00;99293.85;1694747;83;21957;-59
2022/10/31 02:05:34;;;;;;;5.47;1.47;;;;;;;9.01;100.00;99299.23;1693619;84;21927;-59
2022/10/31 02:08:16;;;;;;;4.47;1.43;;;;;;;9.03;100.00;99297.75;1692734;83;21282;-70
2022/10/31 02:10:43;;;;;;;3.87;1.82;;;;;;;9.00;100.00;99300.23;1695015;83;21505;-59
2022/10/31 02:13:12;;;;;;;6.07;1.40;;;;;;;8.99;100.00;99296.84;1693446;84;21102;-61
2022/10/31 02:15:41;;;;;;;5.22;1.27;;;;;;;9.01;100.00;99292.23;1692729;83;21775;-63
2022/10/31 02:18:09;;;;;;;4.10;1.60;;;;;;;9.04;100.00;99298.84;1692589;83;21049;-59
2022/10/31 02:20:57;;;;;;;3.67;1.40;;;;;;;8.98;100.00;99295.24;1693685;84;21474;-59
2022/10/31 02:24:01;;;;;;;4.00;1.30;;;;;;;8.98;100.00;99291.34;1693876;83;21383;-61
2022/10/31 02:27:02;;;;;;;3.97;1.30;;;;;;;9.01;100.00;99286.23;1693135;84;21736;-58
2022/10/31 02:29:56;;;;;;;4.77;2.10;;;;;;;8.98;100.00;99290.55;1693126;84;21317;-59
2022/10/31 02:32:28;;;;;;;4.23;1.60;;;;;;;8.98;100.00;99279.65;1692466;83;21266;-58
2022/10/31 02:35:01;;;;;;;5.60;1.50;;;;;;;8.98;100.00;99287.45;1692636;84;21717;-58
2022/10/31 02:37:51;;;;;;;6.33;1.77;;;;;;;8.98;100.00;99279.65;1694499;83;21894;-59
2022/10/31 02:40:23;;;;;;;5.07;1.30;;;;;;;8.99;100.00;99288.24;1693443;83;21019;-59
2022/10/31 02:43:04;;;;;;;4.67;1.70;;;;;;;9.00;100.00;99282.04;1691119;83;21264;-58
2022/10/31 02:45:51;;;;;;;7.33;1.70;;;;;;;8.99;100.00;99270.84;1692106;83;21263;-60
2022/10/31 02:48:20;;;;;;;5.73;1.97;;;;;;;9.01;100.00;99284.43;1692506;84;21855;-58
2022/10/31 02:50:53;;;;;;;6.53;1.57;;;;;;;8.98;100.00;99279.65;1692696;83;21814;-59
2022/10/31 02:53:20;;;;;;;5.03;1.60;;;;;;;8.93;100.00;99278.12;1692615;84;21265;-58
2022/10/31 02:56:03;;;;;;;3.90;1.60;;;;;;;8.94;100.00;99288.84;1692831;83;21811;-58
2022/10/31 02:58:33;;;;;;;4.37;1.72;;;;;;;8.93;100.00;99289.81;1693604;83;21296;-59
2022/10/31 03:01:24;;;;;;;4.37;1.47;;;;;;;8.91;100.00;99293.13;1693318;83;20999;-59
2022/10/31 03:03:59;;;;;;;4.27;1.40;;;;;;;8.87;100.00;99291.91;1694834;84;21360;-58
2022/10/31 03:06:37;;;;;;;6.20;1.60;;;;;;;8.86;100.00;99295.48;1693164;83;21315;-73
2022/10/31 03:09:34;;;;;;;5.40;1.27;;;;;;;8.85;100.00;99293.89;1692845;84;21349;-59
2022/10/31 03:12:28;;;;;;;3.33;1.30;;;;;;;8.84;100.00;99290.20;1676653;83;22042;-60
2022/10/31 03:15:04;;;;;;;5.10;1.43;;;;;;;8.77;100.00;99284.47;1692201;83;21322;-59
2022/10/31 03:17:40;;;;;;;7.27;1.40;;;;;;;8.76;100.00;99285.98;1693785;84;21274;-71
2022/10/31 03:20:09;;;;;;;6.50;1.63;;;;;;;8.73;100.00;99279.36;1694276;84;21193;-60
2022/10/31 03:22:38;;;;;;;5.30;1.70;;;;;;;8.71;100.00;99283.97;1691564;83;21463;-59
2022/10/31 03:25:05;;;;;;;4.33;1.43;;;;;;;8.75;100.00;99277.86;1694186;84;21317;-62
2022/10/31 03:27:34;;;;;;;5.27;1.40;;;;;;;8.72;100.00;99273.88;1694798;83;21202;-59
2022/10/31 03:30:04;;;;;;;5.80;1.90;;;;;;;8.72;100.00;99273.08;1694157;83;22066;-58
2022/10/31 03:32:45;;;;;;;;;;;;;;;8.67;100.00;99284.53;1693159;83;21258;-59
2022/10/31 03:35:14;;;;;;;6.27;1.60;;;;;;;8.65;100.00;99282.13;1693292;84;20147;-72
2022/10/31 03:37:42;;;;;;;7.80;1.50;;;;;;;8.64;100.00;99279.24;1690043;84;21741;-59
2022/10/31 03:40:12;;;;;;;3.07;1.00;;;;;;;8.64;100.00;99274.55;1692190;84;21590;-58
2022/10/31 03:42:43;;;;;;;5.00;1.93;;;;;;;8.62;100.00;99275.23;1692390;84;21296;-58
2022/10/31 03:45:16;;;;;;;6.20;1.40;;;;;;;8.61;100.00;99276.23;1693220;83;21290;-68
2022/10/31 03:47:44;;;;;;;5.67;1.70;;;;;;;8.57;100.00;99282.31;1692969;84;22117;-58
2022/10/31 03:50:12;;;;;;;6.73;2.10;;;;;;;8.53;100.00;99277.20;1694497;83;21750;-58
2022/10/31 03:52:48;;;;;;;7.60;1.70;;;;;;;8.46;100.00;99284.95;1692789;83;21364;-58
2022/10/31 03:55:20;;;;;;;6.47;1.87;;;;;;;8.41;100.00;99280.84;1692109;84;21801;-59
2022/10/31 03:58:08;;;;;;;6.10;1.45;;;;;;;8.35;100.00;99282.88;1694689;84;21405;-59
2022/10/31 04:00:35;;;;;;;6.67;1.77;;;;;;;8.32;100.00;99281.16;1690955;83;21089;-67
2022/10/31 04:03:17;;;;;;;5.97;1.50;;;;;;;8.29;100.00;99275.34;1694063;84;21262;-59
2022/10/31 04:05:46;;;;;;;4.30;1.75;;;;;;;8.29;100.00;99268.05;1690154;84;21262;-58
2022/10/31 04:08:17;;;;;;;5.73;1.60;;;;;;;8.32;100.00;99276.76;1693171;83;21355;-59
2022/10/31 04:10:44;;;;;;;4.07;1.80;;;;;;;8.34;100.00;99271.39;1691957;84;21881;-62
2022/10/31 04:13:17;;;;;;;3.90;1.40;;;;;;;8.36;100.00;99276.67;1693033;83;21745;-58
2022/10/31 04:15:46;;;;;;;5.33;1.50;;;;;;;8.40;100.00;99277.13;1692944;84;21765;-59
2022/10/31 04:18:14;;;;;;;4.50;2.23;;;;;;;8.45;100.00;99280.77;1693516;83;21283;-58
2022/10/31 04:20:42;;;;;;;7.80;1.97;;;;;;;8.49;100.00;99294.97;1694056;84;21344;-66
2022/10/31 04:23:24;;;;;;;6.33;1.77;;;;;;;8.56;100.00;99297.59;1694481;84;21375;-58
2022/10/31 04:25:51;;;;;;;5.70;1.60;;;;;;;8.60;100.00;99298.81;1693829;83;21320;-59
2022/10/31 04:28:18;;;;;;;3.57;1.67;;;;;;;8.63;100.00;99298.91;1693200;83;21227;-61
2022/10/31 04:30:45;;;;;;;7.17;1.40;;;;;;;8.63;100.00;99301.50;1693351;83;21296;-59
2022/10/31 04:33:12;;;;;;;3.93;1.23;;;;;;;8.65;100.00;99308.11;1694547;84;21352;-60
2022/10/31 04:35:40;;;;;;;5.73;1.60;;;;;;;8.67;100.00;99304.81;1693996;83;21145;-58
2022/10/31 04:38:07;;;;;;;7.40;2.07;;;;;;;8.70;100.00;99305.73;1692988;83;21369;-60
2022/10/31 04:40:34;;;;;;;4.23;1.70;;;;;;;8.71;100.00;99306.53;1693897;84;21480;-72
2022/10/31 04:43:20;;;;;;;5.83;1.77;;;;;;;8.70;100.00;99312.72;1694305;83;21138;-59
2022/10/31 04:45:47;;;;;;;4.17;1.33;;;;;;;8.69;100.00;99315.83;1693822;83;21786;-60
2022/10/31 04:48:14;;;;;;;6.80;2.30;;;;;;;8.70;100.00;99336.11;1693029;84;21451;-69
2022/10/31 04:50:42;;;;;;;3.27;1.20;;;;;;;8.71;100.00;99341.12;1689497;84;21860;-58
2022/10/31 04:53:09;;;;;;;4.30;1.07;;;;;;;8.74;100.00;99337.33;1694344;84;21763;-64
2022/10/31 04:55:38;;;;;;;2.27;0.60;;;;;;;8.71;100.00;99339.83;1692539;84;21251;-59
2022/10/31 04:58:07;;;;;;;2.67;0.80;;;;;;;8.69;100.00;99352.70;1683543;84;21320;-73
2022/10/31 05:00:35;;;;;;;4.90;0.97;;;;;;;8.63;100.00;99358.15;1692256;83;21340;-59
2022/10/31 05:03:02;;;;;;;4.00;0.90;;;;;;;8.58;100.00;99368.33;1692872;84;21392;-58
2022/10/31 05:05:31;;;;;;;2.97;0.83;;;;;;;8.53;100.00;99372.80;1694333;83;22003;-59
2022/10/31 05:08:00;;;;;;;3.10;1.00;;;;;;;8.49;100.00;99370.78;1694622;84;21461;-69
2022/10/31 05:10:30;;;;;;;3.53;1.00;;;;;;;8.46;100.00;99379.75;1694370;83;21237;-59
2022/10/31 05:13:01;;;;;;;2.83;0.70;;;;;;;8.41;100.00;99385.19;1693714;84;21183;-59
2022/10/31 05:15:28;;;;;;;3.37;1.30;;;;;;;8.37;100.00;99386.53;1693801;84;21824;-59
2022/10/31 05:18:08;;;;;;;2.83;0.90;;;;;;;8.33;100.00;99384.81;1693120;84;21293;-58
2022/10/31 05:20:41;;;;;;;6.23;1.63;;;;;;;8.29;100.00;99396.57;1651253;83;21867;-58
2022/10/31 05:23:15;;;;;;;3.13;0.70;;;;;;;8.26;100.00;99399.57;1691106;84;21336;-59
2022/10/31 05:25:43;;;;;;;2.27;0.60;;;;;;;8.28;100.00;99400.17;1695023;83;21397;-60
2022/10/31 05:28:10;;;;;;;1.87;0.60;;;;;;;8.27;100.00;99403.77;1694369;84;21361;-59
2022/10/31 05:30:37;;;;;;;3.47;1.20;;;;;;;8.24;100.00;99408.83;1692684;83;21175;-60
2022/10/31 05:33:06;;;;;;;3.17;0.80;;;;;;;8.22;100.00;99406.93;1693496;84;21343;-58
2022/10/31 05:35:44;;;;;;;4.83;0.60;;;;;;;8.19;100.00;99414.29;1627397;87;21905;-60
2022/10/31 05:38:30;;;;;;;3.13;0.70;;;;;;;8.15;100.00;99415.66;1718365;83;21747;-59
2022/10/31 05:41:00;;;;;;;3.37;0.87;;;;;;;8.11;100.00;99414.43;1697694;83;21287;-61
2022/10/31 05:43:28;;;;;;;1.63;0.43;;;;;;;8.08;100.00;99421.29;1719312;81;21354;-59
2022/10/31 05:45:56;;;;;;;1.23;0.40;;;;;;;8.03;100.00;99421.83;1693196;83;21288;-59
2022/10/31 05:48:25;;;;;;;2.17;0.30;;;;;;;7.78;100.00;99431.80;1666669;83;21303;-62
2022/10/31 05:51:03;;;;;;;2.67;0.37;;;;;;;7.49;100.00;99436.08;1707413;83;21339;-72
2022/10/31 05:53:30;;;;;;;3.17;0.60;;;;;;;7.15;100.00;99431.99;1711245;83;21359;-59
2022/10/31 05:55:57;;;;;;;1.00;0.40;;;;;;;6.89;100.00;99440.23;1705778;83;21321;-59
2022/10/31 05:58:25;;;;;;;1.90;0.30;;;;;;;6.70;100.00;99451.92;1719749;82;21302;-59
2022/10/31 06:01:00;;;;;;;0.83;0.30;;;;;;;6.51;100.00;99451.45;1712566;83;21235;-74
2022/10/31 06:03:28;;;;;;;1.23;0.30;;;;;;;6.41;100.00;99456.58;1711999;83;22279;-59
2022/10/31 06:05:56;;;;;;;2.03;0.37;;;;;;;6.33;100.00;99452.28;1704425;83;21786;-59
2022/10/31 06:08:29;;;;;;;2.13;0.60;;;;;;;6.32;100.00;99461.00;1713348;83;21312;-59
2022/10/31 06:10:56;;;;;;;1.27;0.30;;;;;;;6.35;100.00;99467.13;1723241;82;21725;-60
2022/10/31 06:13:25;;;;;;;2.53;0.30;;;;;;;6.38;100.00;99464.20;1702340;82;21257;-59
2022/10/31 06:15:55;;;;;;;1.27;0.50;;;;;;;6.42;100.00;99456.39;1712581;83;21245;-60
2022/10/31 06:18:24;;;;;;;2.17;0.80;;;;;;;6.49;100.00;99449.54;1705539;83;21433;-59
2022/10/31 06:20:52;;;;;;;1.50;0.60;;;;;;;6.54;100.00;99456.27;1724551;81;21360;-60
2022/10/31 06:23:20;;;;;;;1.43;0.30;;;;;;;6.61;100.00;99452.99;1706264;83;21238;-59
2022/10/31 06:25:50;;;;;;;2.50;0.43;;;;;;;6.69;100.00;99457.59;1723486;81;22171;-60
2022/10/31 06:28:18;;;;;;;4.13;0.70;;;;;;;6.76;100.00;99467.56;1720612;82;21315;-60
2022/10/31 06:30:47;;;;;;;1.60;0.60;;;;;;;6.85;100.00;99457.91;1718626;82;21216;-75
2022/10/31 06:33:15;;;;;;;2.07;0.70;;;;;;;6.91;100.00;99456.41;1702138;83;21792;-60
2022/10/31 06:35:47;;;;;;;1.60;0.50;;;;;;;7.01;100.00;99455.16;1724587;82;21287;-59
2022/10/31 06:38:16;;;;;;;1.35;0.50;;;;;;;7.13;100.00;99459.89;1704779;82;21320;-59
2022/10/31 06:40:43;;;;;;;4.40;0.67;;;;;;;7.21;100.00;99456.70;1698954;84;21089;-74
2022/10/31 06:43:18;;;;;;;1.67;0.40;;;;;;;7.34;100.00;99459.14;1696908;83;21820;-59
2022/10/31 06:45:45;;;;;;;2.90;0.50;;;;;;;7.49;100.00;99468.98;1691503;84;21332;-59
2022/10/31 06:48:14;;;;;;;1.97;0.43;;;;;;;7.57;100.00;99462.39;1696963;83;21362;-59
2022/10/31 06:50:44;;;;;;;1.43;0.47;;;;;;;7.70;100.00;99465.64;1695606;83;21167;-64
2022/10/31 06:53:14;;;;;;;2.63;0.47;;;;;;;7.82;100.00;99461.56;1698321;83;21231;-59
2022/10/31 06:55:41;;;;;;;1.00;0.30;;;;;;;7.97;100.00;99466.20;1691451;83;21301;-60
2022/10/31 06:58:09;;;;;;;1.30;0.30;;;;;;;8.14;100.00;99473.23;1697845;83;21242;-59
2022/10/31 07:00:36;;;;;;;1.20;0.40;;;;;;;8.21;100.00;99469.41;1699497;84;21215;-59
2022/10/31 07:03:09;;;;;;;0.57;0.20;;;;;;;8.35;100.00;99472.93;1699155;83;21430;-67
2022/10/31 07:05:36;;;;;;;1.98;0.53;;;;;;;8.45;100.00;99470.35;1698189;83;21993;-59
2022/10/31 07:08:08;;;;;;;2.20;0.43;;;;;;;8.48;100.00;99467.85;1694550;84;21536;-59
2022/10/31 07:10:35;;;;;;;1.30;0.42;;;;;;;8.47;100.00;99472.25;1698899;82;21845;-72
2022/10/31 07:13:05;;;;;;;1.43;0.37;;;;;;;8.43;100.00;99465.83;1695777;84;21073;-60
2022/10/31 07:15:35;;;;;;;1.50;0.62;;;;;;;8.41;100.00;99474.32;1690403;83;21524;-59
2022/10/31 07:18:04;;;;;;;16.57;2.20;;;;;;;8.43;100.00;99473.62;1697971;84;21650;-59
2022/10/31 07:20:33;;;;;;;2.13;0.60;;;;;;;8.48;100.00;99473.84;1698509;83;21291;-64
2022/10/31 07:23:00;;;;;;;1.80;0.30;;;;;;;8.51;100.00;99475.27;1697438;83;21830;-60
2022/10/31 07:25:29;;;;;;;0.97;0.40;;;;;;;8.50;100.00;99473.17;1693108;83;21853;-60
2022/10/31 07:28:17;;;;;;;0.80;0.30;;;;;;;8.48;100.00;99482.14;1698071;83;21734;-61
2022/10/31 07:30:51;;;;;;;0.37;0.20;;;;;;;8.44;100.00;99486.91;1697930;84;21395;-62
2022/10/31 07:33:20;;;;;;;0.70;0.20;;;;;;;8.42;100.00;99482.41;1698276;83;21451;-60
2022/10/31 07:35:49;;;;;;;2.23;0.40;;;;;;;8.44;100.00;99483.01;1697918;83;21329;-58
2022/10/31 07:38:17;;;;;;;2.40;0.50;;;;;;;8.45;100.00;99483.34;1696451;84;21507;-59
2022/10/31 07:40:44;;;;;;;0.87;0.40;;;;;;;8.45;100.00;99478.14;1695285;84;21769;-59
2022/10/31 07:43:12;;;;;;;1.43;0.50;;;;;;;8.66;100.00;99486.38;1699465;84;21964;-58
2022/10/31 07:45:57;;;;;;;1.53;0.37;;;;;;;8.92;100.00;99470.16;1696546;83;21521;-59
2022/10/31 07:48:43;;;;;;;0.80;0.30;;;;;;;8.92;100.00;99470.16;1698095;82;21593;-59
2022/10/31 07:51:11;;;;;;;1.57;0.20;;;;;;;9.29;100.00;99475.15;1651719;82;21389;-59
2022/10/31 07:53:49;;;;;;;1.70;0.60;;;;;;;9.65;100.00;99469.66;1696613;83;21590;-60
2022/10/31 07:56:18;;;;;;;2.30;0.20;;;;;;;10.04;100.00;99472.03;1696792;84;21764;-60
2022/10/31 07:58:45;;;;;;;1.40;0.57;;;;;;;10.34;100.00;99472.48;1698012;83;22313;-59
2022/10/31 08:01:13;;;;;;;1.40;0.50;;;;;;;10.55;100.00;99472.80;1696155;84;21662;-59
2022/10/31 08:03:43;;;;;;;2.80;0.57;;;;;;;10.72;100.00;99468.78;1697258;83;20978;-60
2022/10/31 08:06:28;;;;;;;1.80;0.60;;;;;;;10.82;100.00;99471.75;1696760;83;21134;-60
2022/10/31 08:09:04;;;;;;;1.77;0.70;;;;;;;10.90;100.00;99467.61;1696201;84;21061;-59
2022/10/31 08:11:32;;;;;;;1.37;0.40;;;;;;;11.00;100.00;99465.90;1694851;83;20967;-61
2022/10/31 08:14:01;;;;;;;1.73;0.50;;;;;;;11.24;100.00;99473.54;1697143;83;21127;-65
2022/10/31 08:16:29;;;;;;;1.57;0.33;;;;;;;11.34;100.00;99479.63;1699546;83;21402;-58
2022/10/31 08:18:59;;;;;;;1.07;0.30;;;;;;;11.45;100.00;99474.56;1696740;83;22232;-59
2022/10/31 08:21:26;;;;;;;0.97;0.37;;;;;;;11.60;100.00;99470.38;1696661;83;21089;-58
2022/10/31 08:23:53;;;;;;;0.83;0.30;;;;;;;11.74;97.60;99470.30;1697927;83;21098;-72
2022/10/31 08:26:22;;;;;;;0.63;0.20;;;;;;;12.02;100.00;99470.77;1689945;83;21953;-58
2022/10/31 08:28:51;;;;;;;0.40;0.20;;;;;;;12.37;99.85;99472.41;1697784;83;20955;-59
2022/10/31 08:31:20;;;;;;;0.97;0.30;;;;;;;12.71;87.42;99470.81;1697112;84;21183;-58
2022/10/31 08:33:47;;;;;;;0.80;0.40;;;;;;;12.85;82.93;99474.91;1697311;83;21085;-72
2022/10/31 08:36:33;;;;;;;0.73;0.23;;;;;;;12.95;80.44;99463.92;1698435;84;21124;-58
2022/10/31 08:39:08;;;;;;;1.23;0.37;;;;;;;13.18;79.06;99456.20;1698056;83;21050;-59
2022/10/31 08:41:36;;;;;;;1.07;0.27;;;;;;;13.30;71.69;99460.25;1695341;82;21018;-71
2022/10/31 08:44:04;;;;;;;0.80;0.20;;;;;;;13.21;65.72;99470.17;1696416;82;21700;-64
2022/10/31 08:46:32;;;;;;;1.17;0.20;;;;;;;12.96;62.70;99479.94;1698143;83;21014;-58
2022/10/31 08:48:59;;;;;;;1.80;0.50;;;;;;;12.76;60.75;99471.75;1697284;84;21019;-57
2022/10/31 08:51:26;;;;;;;1.40;0.40;;;;;;;12.56;61.55;99473.76;1695628;84;21496;-71
2022/10/31 08:53:54;;;;;;;1.43;0.50;;;;;;;12.39;61.45;99470.39;1696770;84;21101;-58
2022/10/31 08:56:35;;;;;;;1.13;0.20;;;;;;;12.11;60.08;99477.33;1695962;83;21170;-64
2022/10/31 08:59:04;;;;;;;1.23;0.30;;;;;;;11.87;61.37;99476.80;1697310;83;20986;-63
2022/10/31 09:01:36;;;;;;;0.50;0.20;;;;;;;11.71;62.61;99471.53;1697693;82;21073;-61
2022/10/31 09:04:05;;;;;;;0.80;0.37;;;;;;;11.55;65.37;99480.63;1698294;83;21967;-62
2022/10/31 09:06:32;;;;;;;0.80;0.20;;;;;;;11.48;66.99;99471.23;1698126;82;21567;-58
2022/10/31 09:09:00;;;;;;;0.67;0.20;;;;;;;11.45;69.45;99472.47;1697305;83;21114;-58
2022/10/31 09:11:27;;;;;;;1.13;0.30;;;;;;;11.50;68.49;99479.16;1697850;83;20963;-61
2022/10/31 09:14:14;;;;;;;2.30;0.40;;;;;;;11.58;68.83;99475.50;1692441;83;21515;-58
2022/10/31 09:16:59;;;;;;;1.70;0.20;;;;;;;11.82;67.19;99483.92;1697211;84;21050;-66
2022/10/31 09:19:31;;;;;;;;;;;;;;;12.05;64.78;99479.49;1700504;83;20987;-58
2022/10/31 09:21:59;;;;;;;0.53;0.20;;;;;;;12.20;61.14;99480.98;1700833;83;21194;-58
2022/10/31 09:24:26;;;;;;;1.80;0.30;;;;;;;12.16;61.45;99478.81;1714995;83;21061;-58
2022/10/31 09:26:54;;;;;;;1.10;0.30;;;;;;;12.09;60.16;99476.75;1720306;81;21110;-59
2022/10/31 09:29:26;;;;;;;0.70;0.20;;;;;;;12.02;60.99;99480.42;1709709;83;21041;-58
2022/10/31 09:31:56;;;;;;;1.00;0.20;;;;;;;11.85;60.40;99473.06;1723727;83;21046;-59
2022/10/31 09:34:25;;;;;;;2.23;0.40;;;;;;;11.57;61.28;99477.32;1722619;82;21100;-70
2022/10/31 09:36:57;;;;;;;1.53;0.50;;;;;;;11.35;62.58;99480.72;1721263;82;23689;-58
2022/10/31 09:39:24;;;;;;;0.70;0.30;;;;;;;11.21;65.78;99481.77;1708061;83;21588;-59
2022/10/31 09:42:11;;;;;;;1.10;0.47;;;;;;;11.11;66.55;99490.55;1725149;82;20978;-59
2022/10/31 09:45:16;;;;;;;1.93;0.20;;;;;;;10.97;68.67;99493.68;1709933;83;21059;-59
2022/10/31 09:48:05;;;;;;;0.80;0.40;;;;;;;10.85;70.35;99497.42;1698585;83;21263;-67
2022/10/31 09:50:47;;;;;;;0.60;0.20;;;;;;;10.76;73.12;99493.44;1720569;82;20994;-58
2022/10/31 09:53:59;;;;;;;2.00;0.30;;;;;;;10.78;73.38;99507.05;1721334;83;21682;-58
2022/10/31 09:56:26;;;;;;;1.57;0.40;;;;;;;10.72;74.15;99510.48;1681217;83;21014;-59
2022/10/31 09:58:58;;;;;;;1.07;0.30;;;;;;;10.74;76.36;99511.06;1708247;83;21030;-61
2022/10/31 10:01:56;;;;;;;1.10;0.30;;;;;;;10.72;69.65;99505.27;1721611;82;21532;-58
2022/10/31 10:04:41;;;;;;;0.37;0.20;;;;;;;10.58;66.59;99506.27;1714298;83;21111;-63
2022/10/31 10:07:43;;;;;;;0.97;0.30;;;;;;;10.32;66.50;99519.59;1708661;83;21542;-58
2022/10/31 10:10:55;;;;;;;3.07;0.37;;;;;;;10.12;65.96;99514.33;1703335;83;21105;-58
2022/10/31 10:13:42;;;;;;;1.30;0.40;;;;;;;9.97;65.90;99509.80;1702830;83;21075;-59
2022/10/31 10:16:42;;;;;;;1.80;0.40;;;;;;;9.92;67.83;99515.57;1711571;83;21655;-59
2022/10/31 10:19:34;;;;;;;6.03;0.50;;;;;;;9.69;69.34;99522.91;1703457;83;22115;-58
2022/10/31 10:22:23;;;;;;;1.00;0.40;;;;;;;9.69;69.34;99522.91;1707982;83;21000;-70
2022/10/31 10:25:21;;;;;;;1.97;0.47;;;;;;;9.67;70.68;99536.13;1708686;83;21776;-60
2022/10/31 10:28:04;;;;;;;1.10;0.30;;;;;;;9.55;71.11;99536.89;1709539;83;21932;-58
2022/10/31 10:30:48;;;;;;;0.73;0.37;;;;;;;9.42;74.05;99529.31;1711963;83;22638;-61
2022/10/31 10:33:22;;;;;;;1.30;0.40;;;;;;;9.19;79.05;99536.59;1714248;83;21673;-59
2022/10/31 10:35:53;;;;;;;3.40;0.57;;;;;;;9.19;79.05;99536.59;1701491;83;21451;-59
2022/10/31 10:38:48;;;;;;;0.95;0.30;;;;;;;9.16;81.40;99535.17;1700877;83;21711;-59
2022/10/31 10:41:22;;;;;;;1.67;0.83;;;;;;;9.12;83.45;99538.35;1723868;82;20934;-58
2022/10/31 10:43:51;;;;;;;2.97;1.20;;;;;;;8.94;85.44;99555.25;1713730;83;22244;-58
2022/10/31 10:49:50;;;;;;;2.83;0.53;;;;;;;8.88;88.28;99556.00;1700632;83;21770;-58
2022/10/31 10:52:43;;;;;;;1.43;0.60;;;;;;;8.70;91.25;99559.55;1700502;83;21869;-58
2022/10/31 10:55:40;;;;;;;1.80;0.70;;;;;;;8.70;91.25;99559.55;1723662;82;21512;-58
2022/10/31 10:58:08;;;;;;;2.13;0.60;;;;;;;8.48;93.25;99562.66;1705063;83;21291;-58
2022/10/31 11:00:47;;;;;;;1.20;0.50;;;;;;;8.48;93.25;99562.66;1713762;83;21416;-58
2022/10/31 11:03:14;;;;;;;1.47;0.50;;;;;;;8.44;93.25;99575.20;1702917;83;21821;-58
2022/10/31 11:05:58;;;;;;;2.43;0.50;;;;;;;8.43;94.40;99578.00;1702754;83;21368;-58
2022/10/31 11:08:29;;;;;;;2.53;0.70;;;;;;;8.41;97.55;99573.00;1708517;83;21492;-59
2022/10/31 11:11:04;;;;;;;3.23;0.90;;;;;;;8.49;100.00;99585.86;1718969;82;21434;-59
2022/10/31 11:13:33;;;;;;;2.57;0.60;;;;;;;8.76;87.92;99580.90;1713001;83;21643;-59
2022/10/31 11:16:13;;;;;;;1.53;0.60;;;;;;;8.76;87.92;99580.90;1702567;83;21453;-58
2022/10/31 11:18:44;;;;;;;1.33;0.30;;;;;;;8.85;87.76;99587.55;1700982;83;21704;-58
2022/10/31 11:21:27;;;;;;;1.57;0.40;;;;;;;8.91;85.90;99584.22;1703801;83;21394;-58
2022/10/31 11:24:15;;;;;;;1.07;0.33;;;;;;;8.89;85.04;99590.59;1702055;83;21422;-58
2022/10/31 11:26:44;;;;;;;1.70;0.60;;;;;;;8.80;87.61;99591.72;1700920;83;21333;-58
2022/10/31 11:29:15;;;;;;;2.50;1.50;;;;;;;8.80;87.61;99591.72;1701694;83;21488;-59
2022/10/31 11:31:42;;;;;;;1.52;0.57;;;;;;;8.77;86.28;99604.59;1722683;82;21888;-58
2022/10/31 11:34:38;;;;;;;1.57;0.60;;;;;;;8.74;85.69;99610.95;1723203;82;20943;-64
2022/10/31 11:37:18;;;;;;;1.87;0.50;;;;;;;8.68;83.92;99612.22;1718581;82;21378;-59
2022/10/31 11:39:55;;;;;;;1.23;0.63;;;;;;;8.47;82.96;99631.98;1687758;84;21238;-71
2022/10/31 11:42:27;;;;;;;16.00;12.27;;;;;;;8.47;82.96;99631.98;1703638;83;43149;-60
2022/10/31 11:44:54;;;;;;;5.03;3.30;;;;;;;8.39;80.17;99644.29;1705481;83;21487;-58
2022/10/31 11:47:29;;;;;;;3.53;1.80;;;;;;;8.41;78.51;99661.78;1706966;83;21394;-58
2022/10/31 11:49:56;;;;;;;1.43;0.57;;;;;;;8.41;78.51;99661.78;1710242;83;21727;-58
2022/10/31 11:52:26;;;;;;;1.53;0.50;;;;;;;8.41;75.46;99660.01;1712167;83;21357;-58
2022/10/31 11:55:05;;;;;;;3.65;2.22;;;;;;;8.42;71.97;99668.60;1706303;83;21369;-58
2022/10/31 11:57:35;;;;;;;1.00;0.37;;;;;;;8.40;67.27;99657.08;1697869;83;20958;-59
2022/10/31 12:00:06;;;;;;;1.40;0.50;;;;;;;8.40;63.02;99668.77;1710808;83;21621;-59
2022/10/31 12:02:39;;;;;;;10.53;8.00;;;;;;;8.33;62.85;99679.54;1707041;81;21305;-58
2022/10/31 12:05:32;;;;;;;1.90;1.30;;;;;;;8.23;60.48;99679.84;1713479;83;21345;-58